createdAt,value
2023-02-18T00:00:29.085Z,96641.56
2023-02-18T00:02:58.303Z,96629.22
2023-02-18T00:05:25.011Z,96622.97
2023-02-18T00:07:51.758Z,96628.03
2023-02-18T00:10:18.565Z,96624.03
2023-02-18T00:12:45.656Z,96622.66
2023-02-18T00:15:12.837Z,96626.97
2023-02-18T00:17:39.541Z,96625.22
2023-02-18T00:20:07.451Z,96626.66
2023-02-18T00:22:34.660Z,96630.97
2023-02-18T00:25:01.332Z,96617.06
2023-02-18T00:27:27.971Z,96618.91
2023-02-18T00:29:54.694Z,96613.63
2023-02-18T00:32:21.417Z,96630.22
2023-02-18T00:34:48.232Z,96623.91
2023-02-18T00:37:14.865Z,96607.47
2023-02-18T00:39:41.625Z,96609.59
2023-02-18T00:42:08.217Z,96622.84
2023-02-18T00:44:34.843Z,96625.72
2023-02-18T00:47:01.611Z,96617.97
2023-02-18T00:49:28.347Z,96615.50
2023-02-18T00:51:54.969Z,96613.91
2023-02-18T00:54:21.589Z,96620.22
2023-02-18T00:56:48.235Z,96604.78
2023-02-18T00:59:14.843Z,96624.22
2023-02-18T01:01:41.639Z,96618.75
2023-02-18T01:04:08.417Z,96621.78
2023-02-18T01:06:35.062Z,96623.06
2023-02-18T01:09:01.802Z,96617.47
2023-02-18T01:15:21.583Z,96616.03
2023-02-18T01:17:48.674Z,96602.78
2023-02-18T01:20:16.013Z,96605.34
2023-02-18T01:22:42.655Z,96610.44
2023-02-18T01:25:10.242Z,96609.56
2023-02-18T01:27:37.910Z,96610.66
2023-02-18T01:30:05.997Z,96609.44
2023-02-18T01:32:32.655Z,96614.91
2023-02-18T01:35:02.407Z,96606.16
2023-02-18T01:37:29.501Z,96611.25
2023-02-18T01:39:56.234Z,96610.53
2023-02-18T01:42:26.497Z,96607.56
2023-02-18T01:44:54.010Z,96621.66
2023-02-18T01:47:21.277Z,96607.41
2023-02-18T01:49:52.798Z,96615.16
2023-02-18T01:52:24.281Z,96592.47
2023-02-18T01:54:57.210Z,96591.16
2023-02-18T01:57:35.220Z,96596.66
2023-02-18T02:00:12.289Z,96592.81
2023-02-18T02:02:42.874Z,96591.22
2023-02-18T02:05:09.511Z,96602.16
2023-02-18T02:07:36.249Z,96607.59
2023-02-18T02:10:03.436Z,96586.06
2023-02-18T02:13:04.277Z,96587.91
2023-02-18T02:16:15.465Z,96595.34
2023-02-18T02:19:02.245Z,96575.75
2023-02-18T02:21:50.820Z,96577.44
2023-02-18T02:24:32.416Z,96589.00
2023-02-18T02:27:14.017Z,96567.94
2023-02-18T02:30:01.956Z,96566.78
2023-02-18T02:33:01.498Z,96559.75
2023-02-18T02:35:54.455Z,96575.41
2023-02-18T02:38:27.128Z,96562.56
2023-02-18T02:41:32.355Z,96561.31
2023-02-18T02:44:02.016Z,96566.53
2023-02-18T02:46:35.201Z,96539.19
2023-02-18T02:49:33.748Z,96553.81
2023-02-18T02:52:08.030Z,96550.41
2023-02-18T02:54:34.688Z,96556.78
2023-02-18T02:57:32.981Z,96546.84
2023-02-18T03:00:04.799Z,96547.91
2023-02-18T03:02:58.595Z,96553.63
2023-02-18T03:05:46.835Z,96549.75
2023-02-18T03:08:19.193Z,96543.66
2023-02-18T03:11:04.737Z,96547.63
2023-02-18T03:13:51.562Z,96549.84
2023-02-18T03:16:30.221Z,96549.19
2023-02-18T03:19:05.808Z,96547.53
2023-02-18T03:21:38.301Z,96550.19
2023-02-18T03:24:18.076Z,96539.69
2023-02-18T03:26:50.671Z,96545.50
2023-02-18T03:29:19.667Z,96547.19
2023-02-18T03:31:52.875Z,96546.91
2023-02-18T03:34:25.685Z,96542.75
2023-02-18T03:36:53.599Z,96554.16
2023-02-18T03:39:24.220Z,96550.56
2023-02-18T03:41:50.865Z,96548.84
2023-02-18T03:44:17.487Z,96557.31
2023-02-18T03:46:45.259Z,96544.69
2023-02-18T03:49:13.901Z,96540.69
2023-02-18T03:51:41.031Z,96546.53
2023-02-18T03:54:08.296Z,96543.44
2023-02-18T03:56:36.319Z,96548.25
2023-02-18T03:59:03.911Z,96540.19
2023-02-18T04:01:30.629Z,96545.72
2023-02-18T04:03:57.368Z,96542.94
2023-02-18T04:06:24.213Z,96551.25
2023-02-18T04:08:51.048Z,96548.38
2023-02-18T04:11:18.237Z,96550.28
2023-02-18T04:13:44.900Z,96544.56
2023-02-18T04:16:11.778Z,96557.41
2023-02-18T04:18:38.511Z,96552.31
2023-02-18T04:21:05.525Z,96565.97
2023-02-18T04:23:32.176Z,96559.44
2023-02-18T04:25:58.769Z,96553.09
2023-02-18T04:28:25.462Z,96555.50
2023-02-18T04:30:52.220Z,96552.28
2023-02-18T04:33:18.975Z,96552.81
2023-02-18T04:35:46.071Z,96554.25
2023-02-18T04:38:14.855Z,96551.56
2023-02-18T04:40:41.610Z,96549.63
2023-02-18T04:43:08.262Z,96557.69
2023-02-18T04:45:34.955Z,96553.69
2023-02-18T04:48:01.622Z,96547.16
2023-02-18T04:50:28.362Z,96544.41
2023-02-18T04:52:55.038Z,96554.53
2023-02-18T04:55:21.798Z,96559.84
2023-02-18T04:57:48.483Z,96556.91
2023-02-18T05:00:18.332Z,96551.94
2023-02-18T05:02:45.649Z,96553.28
2023-02-18T05:05:13.609Z,96540.38
2023-02-18T05:07:42.405Z,96550.38
2023-02-18T05:10:11.350Z,96552.19
2023-02-18T05:12:38.105Z,96542.41
2023-02-18T05:15:05.098Z,96548.97
2023-02-18T05:17:31.696Z,96540.06
2023-02-18T05:19:58.503Z,96539.97
2023-02-18T05:22:25.304Z,96536.88
2023-02-18T05:24:51.934Z,96549.41
2023-02-18T05:27:18.636Z,96550.66
2023-02-18T05:29:45.318Z,96546.03
2023-02-18T05:32:11.927Z,96553.69
2023-02-18T05:34:38.935Z,96555.28
2023-02-18T05:37:05.594Z,96548.59
2023-02-18T05:39:32.222Z,96551.38
2023-02-18T05:41:58.872Z,96559.75
2023-02-18T05:44:31.511Z,96558.91
2023-02-18T05:46:59.921Z,96563.25
2023-02-18T05:49:27.004Z,96567.78
2023-02-18T05:51:53.711Z,96568.38
2023-02-18T05:54:20.608Z,96565.84
2023-02-18T05:56:47.438Z,96554.97
2023-02-18T05:59:14.872Z,96558.59
2023-02-18T06:01:41.669Z,96568.63
2023-02-18T06:04:08.686Z,96566.09
2023-02-18T06:06:35.964Z,96570.59
2023-02-18T06:09:03.616Z,96558.59
2023-02-18T06:11:30.254Z,96555.94
2023-02-18T06:13:56.906Z,96565.56
2023-02-18T06:16:23.973Z,96564.84
2023-02-18T06:18:50.651Z,96562.91
2023-02-18T06:21:17.317Z,96573.50
2023-02-18T06:23:44.154Z,96578.09
2023-02-18T06:26:11.157Z,96568.06
2023-02-18T06:28:37.896Z,96568.59
2023-02-18T06:31:04.905Z,96571.72
2023-02-18T06:33:31.716Z,96566.44
2023-02-18T06:35:59.817Z,96574.47
2023-02-18T06:38:27.382Z,96580.06
2023-02-18T06:40:54.053Z,96575.22
2023-02-18T06:43:21.072Z,96581.22
2023-02-18T06:45:47.813Z,96573.13
2023-02-18T06:48:14.660Z,96578.16
2023-02-18T06:50:43.090Z,96576.06
2023-02-18T06:53:09.944Z,96570.03
2023-02-18T06:55:37.134Z,96572.88
2023-02-18T06:58:04.770Z,96567.69
2023-02-18T07:00:31.949Z,96565.75
2023-02-18T07:03:00.086Z,96577.75
2023-02-18T07:05:26.861Z,96575.09
2023-02-18T07:07:53.521Z,96578.28
2023-02-18T07:10:20.375Z,96581.50
2023-02-18T07:12:47.191Z,96581.38
2023-02-18T07:15:14.092Z,96582.34
2023-02-18T07:17:40.738Z,96585.13
2023-02-18T07:20:08.323Z,96588.19
2023-02-18T07:22:35.053Z,96592.09
2023-02-18T07:25:01.816Z,96595.31
2023-02-18T07:27:28.444Z,96600.72
2023-02-18T07:29:55.362Z,96595.38
2023-02-18T07:32:21.993Z,96602.63
2023-02-18T07:34:48.624Z,96600.97
2023-02-18T07:37:15.266Z,96610.06
2023-02-18T07:39:43.159Z,96608.28
2023-02-18T07:42:11.118Z,96613.31
2023-02-18T07:44:38.947Z,96612.44
2023-02-18T07:47:06.849Z,96617.34
2023-02-18T07:49:34.020Z,96615.94
2023-02-18T07:52:00.730Z,96610.91
2023-02-18T07:54:27.814Z,96619.41
2023-02-18T07:56:55.010Z,96629.88
2023-02-18T07:59:21.663Z,96621.31
2023-02-18T08:01:48.397Z,96630.81
2023-02-18T08:04:15.476Z,96628.88
2023-02-18T08:06:47.472Z,96631.53
2023-02-18T08:09:14.645Z,96636.97
2023-02-18T08:11:41.347Z,96619.34
2023-02-18T08:14:08.308Z,96620.81
2023-02-18T08:16:35.678Z,96633.53
2023-02-18T08:19:04.090Z,96630.72
2023-02-18T08:21:31.233Z,96632.56
2023-02-18T08:23:59.318Z,96630.44
2023-02-18T08:26:26.565Z,96631.25
2023-02-18T08:28:53.358Z,96623.97
2023-02-18T08:31:28.184Z,96622.50
2023-02-18T08:33:55.735Z,96622.16
2023-02-18T08:36:23.519Z,96614.41
2023-02-18T08:38:50.459Z,96610.59
2023-02-18T08:41:19.161Z,96610.50
2023-02-18T08:43:46.968Z,96620.69
2023-02-18T08:46:16.254Z,96631.69
2023-02-18T08:48:44.474Z,96614.59
2023-02-18T08:51:18.279Z,96619.69
2023-02-18T08:53:46.876Z,96615.84
2023-02-18T08:56:15.110Z,96613.22
2023-02-18T08:58:42.499Z,96615.50
2023-02-18T09:01:11.446Z,96605.69
2023-02-18T09:03:39.410Z,96608.91
2023-02-18T09:06:06.460Z,96600.47
2023-02-18T09:08:33.393Z,96595.88
2023-02-18T09:11:02.155Z,96599.06
2023-02-18T09:13:28.884Z,96594.91
2023-02-18T09:15:59.507Z,96593.03
2023-02-18T09:18:26.384Z,96588.19
2023-02-18T09:20:56.890Z,96586.84
2023-02-18T09:23:24.622Z,96586.16
2023-02-18T09:25:51.334Z,96590.50
2023-02-18T09:28:18.001Z,96588.50
2023-02-18T09:30:44.700Z,96586.13
2023-02-18T09:33:11.776Z,96587.91
2023-02-18T09:35:46.217Z,96579.53
2023-02-18T09:38:15.866Z,96583.97
2023-02-18T09:40:54.354Z,96580.91
2023-02-18T09:43:35.943Z,96582.69
2023-02-18T09:46:04.690Z,96563.06
2023-02-18T09:48:34.291Z,96566.91
2023-02-18T09:51:01.092Z,96569.13
2023-02-18T09:53:27.897Z,96563.66
2023-02-18T09:55:57.044Z,96555.28
2023-02-18T09:58:25.213Z,96557.13
2023-02-18T10:01:00.334Z,96548.75
2023-02-18T10:03:27.293Z,96538.69
2023-02-18T10:06:02.852Z,96534.25
2023-02-18T10:08:50.804Z,96531.16
2023-02-18T10:11:42.357Z,96532.00
2023-02-18T10:14:14.668Z,96522.75
2023-02-18T10:16:43.757Z,96521.25
2023-02-18T10:19:41.128Z,96518.75
2023-02-18T10:22:12.843Z,96514.19
2023-02-18T10:24:54.129Z,96509.69
2023-02-18T10:27:29.740Z,96502.25
2023-02-18T10:30:02.633Z,96501.28
2023-02-18T10:32:36.771Z,96496.81
2023-02-18T10:35:27.921Z,96491.25
2023-02-18T10:38:20.431Z,96491.72
2023-02-18T10:41:18.733Z,96489.88
2023-02-18T10:43:53.780Z,96482.44
2023-02-18T10:46:35.132Z,96476.66
2023-02-18T10:49:29.484Z,96473.09
2023-02-18T10:51:59.334Z,96461.94
2023-02-18T10:54:27.464Z,96458.38
2023-02-18T10:57:00.108Z,96448.44
2023-02-18T10:59:33.327Z,96441.19
2023-02-18T11:02:13.853Z,96440.94
2023-02-18T11:04:44.932Z,96435.72
2023-02-18T11:07:27.220Z,96443.38
2023-02-18T11:09:56.231Z,96427.69
2023-02-18T11:12:44.398Z,96417.69
2023-02-18T11:15:13.815Z,96414.25
2023-02-18T11:17:41.709Z,96409.88
2023-02-18T11:20:26.742Z,96403.72
2023-02-18T11:22:58.100Z,96389.22
2023-02-18T11:25:27.689Z,96381.94
2023-02-18T11:28:00.438Z,96382.97
2023-02-18T11:30:35.118Z,96365.97
2023-02-18T11:33:08.706Z,96370.16
2023-02-18T11:35:36.265Z,96361.88
2023-02-18T11:38:16.772Z,96360.63
2023-02-18T11:40:43.545Z,96343.22
2023-02-18T11:43:16.079Z,96337.63
2023-02-18T11:45:44.125Z,96346.13
2023-02-18T11:48:24.457Z,96327.28
2023-02-18T11:50:53.098Z,96331.22
2023-02-18T11:53:33.678Z,96321.47
2023-02-18T11:56:03.579Z,96310.91
2023-02-18T11:58:39.960Z,96304.69
2023-02-18T12:01:14.500Z,96300.13
2023-02-18T12:03:54.748Z,96283.97
2023-02-18T12:06:28.581Z,96286.22
2023-02-18T12:09:01.464Z,96274.53
2023-02-18T12:11:36.512Z,96272.19
2023-02-18T12:14:03.599Z,96264.97
2023-02-18T12:16:36.400Z,96266.03
2023-02-18T12:19:28.984Z,96255.75
2023-02-18T12:22:17.088Z,96248.13
2023-02-18T12:25:04.400Z,96241.75
2023-02-18T12:27:56.959Z,96237.66
2023-02-18T12:30:46.029Z,96227.63
2023-02-18T12:33:37.164Z,96216.81
2023-02-18T12:36:10.744Z,96206.66
2023-02-18T12:38:49.854Z,96217.63
2023-02-18T12:41:38.310Z,96211.75
2023-02-18T12:44:19.827Z,96217.09
2023-02-18T12:47:12.445Z,96200.81
2023-02-18T12:50:15.722Z,96212.63
2023-02-18T12:53:01.667Z,96207.41
2023-02-18T12:55:37.439Z,96205.38
2023-02-18T12:58:37.319Z,96206.59
2023-02-18T13:01:18.859Z,96196.69
2023-02-18T13:03:48.484Z,96193.78
2023-02-18T13:06:15.232Z,96190.28
2023-02-18T13:08:48.037Z,96192.97
2023-02-18T13:11:39.080Z,96191.28
2023-02-18T13:14:30.930Z,96189.19
2023-02-18T13:17:00.176Z,96179.47
2023-02-18T13:19:26.915Z,96174.31
2023-02-18T13:22:06.791Z,96170.78
2023-02-18T13:24:36.603Z,96164.69
2023-02-18T13:27:06.180Z,96160.13
2023-02-18T13:29:47.707Z,96152.19
2023-02-18T13:32:37.602Z,96145.72
2023-02-18T13:35:13.220Z,96131.25
2023-02-18T13:38:18.416Z,96136.50
2023-02-18T13:40:45.729Z,96136.88
2023-02-18T13:43:30.174Z,96134.34
2023-02-18T13:46:19.966Z,96131.91
2023-02-18T13:48:53.106Z,96127.19
2023-02-18T13:51:33.913Z,96121.16
2023-02-18T13:54:17.601Z,96120.03
2023-02-18T13:57:06.347Z,96115.63
2023-02-18T13:59:41.706Z,96112.59
2023-02-18T14:02:21.036Z,96116.03
2023-02-18T14:05:05.848Z,96104.81
2023-02-18T14:07:44.141Z,96105.19
2023-02-18T14:10:16.573Z,96095.50
2023-02-18T14:12:51.900Z,96100.16
2023-02-18T14:15:18.939Z,96095.91
2023-02-18T14:18:08.824Z,96094.13
2023-02-18T14:20:38.549Z,96096.47
2023-02-18T14:23:20.449Z,96090.81
2023-02-18T14:25:53.762Z,96094.31
2023-02-18T14:28:54.647Z,96093.84
2023-02-18T14:31:41.444Z,96095.25
2023-02-18T14:34:26.975Z,96095.31
2023-02-18T14:37:27.427Z,96089.28
2023-02-18T14:40:24.942Z,96087.81
2023-02-18T14:43:08.577Z,96080.72
2023-02-18T14:46:01.804Z,96086.59
2023-02-18T14:48:57.835Z,96082.06
2023-02-18T14:51:27.229Z,96077.47
2023-02-18T14:53:53.926Z,96083.25
2023-02-18T14:56:21.874Z,96079.88
2023-02-18T14:58:52.827Z,96088.66
2023-02-18T15:01:31.660Z,96084.91
2023-02-18T15:04:00.245Z,96085.09
2023-02-18T15:06:36.225Z,96077.34
2023-02-18T15:09:23.259Z,96075.03
2023-02-18T15:11:51.673Z,96080.06
2023-02-18T15:14:21.822Z,96074.16
2023-02-18T15:16:50.006Z,96087.88
2023-02-18T15:19:23.197Z,96081.59
2023-02-18T15:21:51.946Z,96074.44
2023-02-18T15:24:31.279Z,96075.34
2023-02-18T15:27:02.358Z,96073.66
2023-02-18T15:29:33.904Z,96070.16
2023-02-18T15:32:01.739Z,96069.22
2023-02-18T15:34:39.141Z,96075.06
2023-02-18T15:37:14.044Z,96070.06
2023-02-18T15:39:42.662Z,96075.28
2023-02-18T15:42:25.004Z,96078.66
2023-02-18T15:44:57.537Z,96076.66
2023-02-18T15:47:25.141Z,96079.63
2023-02-18T15:49:55.608Z,96076.75
2023-02-18T15:52:40.213Z,96073.63
2023-02-18T15:55:27.163Z,96077.56
2023-02-18T15:57:54.766Z,96081.75
2023-02-18T16:00:37.089Z,96067.69
2023-02-18T16:03:15.960Z,96060.50
2023-02-18T16:05:43.223Z,96068.84
2023-02-18T16:08:17.099Z,96078.94
2023-02-18T16:10:54.286Z,96070.97
2023-02-18T16:13:21.890Z,96072.63
2023-02-18T16:15:50.854Z,96083.28
2023-02-18T16:18:36.830Z,96066.97
2023-02-18T16:21:23.692Z,96071.31
2023-02-18T16:23:58.100Z,96075.31
2023-02-18T16:26:30.444Z,96079.97
2023-02-18T16:29:05.867Z,96078.00
2023-02-18T16:31:32.533Z,96074.66
2023-02-18T16:33:59.217Z,96078.31
2023-02-18T16:36:26.521Z,96077.94
2023-02-18T16:38:53.249Z,96083.56
2023-02-18T16:41:20.043Z,96080.25
2023-02-18T16:43:46.677Z,96084.44
2023-02-18T16:46:16.696Z,96085.22
2023-02-18T16:48:46.298Z,96085.38
2023-02-18T16:51:26.096Z,96077.56
2023-02-18T16:53:52.872Z,96091.16
2023-02-18T16:56:22.760Z,96090.19
2023-02-18T16:58:50.954Z,96086.50
2023-02-18T17:01:29.697Z,96093.97
2023-02-18T17:03:58.849Z,96104.22
2023-02-18T17:06:25.859Z,96114.03
2023-02-18T17:08:52.937Z,96100.44
2023-02-18T17:11:26.048Z,96101.75
2023-02-18T17:13:54.536Z,96103.88
2023-02-18T17:16:22.878Z,96106.97
2023-02-18T17:18:50.149Z,96103.25
2023-02-18T17:21:19.692Z,96119.72
2023-02-18T17:23:47.073Z,96125.16
2023-02-18T17:26:25.182Z,96120.16
2023-02-18T17:28:55.440Z,96104.84
2023-02-18T17:31:26.248Z,96116.09
2023-02-18T17:33:58.752Z,96146.59
2023-02-18T17:36:25.531Z,96134.78
2023-02-18T17:38:53.396Z,96140.06
2023-02-18T17:41:20.318Z,96140.94
2023-02-18T17:43:47.143Z,96156.59
2023-02-18T17:46:16.773Z,96159.38
2023-02-18T17:48:44.956Z,96165.38
2023-02-18T17:51:24.792Z,96167.28
2023-02-18T17:53:51.576Z,96172.25
2023-02-18T17:56:18.234Z,96149.94
2023-02-18T18:01:26.160Z,96152.66
2023-02-18T18:03:52.907Z,96164.06
2023-02-18T18:06:20.979Z,96164.75
2023-02-18T18:08:48.590Z,96159.28
2023-02-18T18:11:25.380Z,96151.56
2023-02-18T18:13:55.090Z,96150.56
2023-02-18T18:16:22.097Z,96164.06
2023-02-18T18:18:48.875Z,96158.84
2023-02-18T18:21:23.660Z,96163.44
2023-02-18T18:23:50.968Z,96159.53
2023-02-18T18:26:17.643Z,96167.22
2023-02-18T18:31:23.920Z,96166.97
2023-02-18T18:33:53.305Z,96169.25
2023-02-18T18:36:21.851Z,96160.69
2023-02-18T18:38:48.578Z,96163.34
2023-02-18T18:41:18.775Z,96181.13
2023-02-18T18:43:46.074Z,96169.34
2023-02-18T18:46:13.078Z,96174.53
2023-02-18T18:49:39.335Z,96182.78
2023-02-18T18:52:06.211Z,96180.97
2023-02-18T18:54:32.942Z,96183.06
2023-02-18T18:56:59.595Z,96185.56
2023-02-18T18:59:26.239Z,96177.75
2023-02-18T19:01:53.430Z,96181.00
2023-02-18T19:04:20.896Z,96199.16
2023-02-18T19:06:47.547Z,96195.06
2023-02-18T19:09:14.227Z,96205.41
2023-02-18T19:11:40.876Z,96214.22
2023-02-18T19:14:11.908Z,96213.56
2023-02-18T19:16:42.756Z,96200.16
2023-02-18T19:19:10.907Z,96201.03
2023-02-18T19:21:37.605Z,96203.13
2023-02-18T19:24:04.589Z,96219.72
2023-02-18T19:26:32.626Z,96203.38
2023-02-18T19:28:59.401Z,96205.16
2023-02-18T19:31:26.325Z,96206.91
2023-02-18T19:33:53.020Z,96214.84
2023-02-18T19:36:19.823Z,96207.63
2023-02-18T19:38:46.704Z,96209.41
2023-02-18T19:41:15.451Z,96214.97
2023-02-18T19:43:42.906Z,96205.56
2023-02-18T19:46:15.833Z,96211.44
2023-02-18T19:48:42.977Z,96222.06
2023-02-18T19:51:10.182Z,96229.31
2023-02-18T19:53:37.546Z,96227.31
2023-02-18T19:56:08.067Z,96224.41
2023-02-18T19:58:35.959Z,96231.59
2023-02-18T20:01:03.122Z,96232.88
2023-02-18T20:03:29.749Z,96223.88
2023-02-18T20:05:56.423Z,96238.03
2023-02-18T20:08:23.045Z,96243.66
2023-02-18T20:12:39.905Z,96243.88
2023-02-18T20:15:06.835Z,96243.03
2023-02-18T20:20:13.254Z,96245.69
2023-02-18T20:22:39.942Z,96251.13
2023-02-18T20:27:59.756Z,96257.69
2023-02-18T20:30:27.702Z,96252.56
2023-02-18T20:32:54.395Z,96263.69
2023-02-18T20:35:21.153Z,96266.34
2023-02-18T20:37:47.743Z,96268.13
2023-02-18T20:40:14.507Z,96259.22
2023-02-18T20:42:42.174Z,96259.78
2023-02-18T20:45:10.540Z,96255.63
2023-02-18T20:47:37.265Z,96249.34
2023-02-18T20:50:04.319Z,96255.88
2023-02-18T20:52:33.570Z,96258.53
2023-02-18T20:55:01.259Z,96266.75
2023-02-18T20:57:28.320Z,96258.41
2023-02-18T20:59:55.244Z,96263.16
2023-02-18T21:02:21.896Z,96274.03
2023-02-18T21:04:48.544Z,96282.22
2023-02-18T21:07:15.197Z,96272.84
2023-02-18T21:09:41.864Z,96265.19
2023-02-18T21:12:09.874Z,96268.97
2023-02-18T21:14:36.681Z,96266.47
2023-02-18T21:17:03.793Z,96283.88
2023-02-18T21:19:30.801Z,96282.34
2023-02-18T21:21:57.477Z,96280.94
2023-02-18T21:24:24.263Z,96275.22
2023-02-18T21:26:50.990Z,96273.09
2023-02-18T21:29:17.605Z,96270.75
2023-02-18T21:31:44.510Z,96272.13
2023-02-18T21:34:14.661Z,96269.63
2023-02-18T21:36:42.316Z,96271.00
2023-02-18T21:39:10.347Z,96281.75
2023-02-18T21:41:40.378Z,96272.63
2023-02-18T21:44:08.136Z,96263.16
2023-02-18T21:46:36.395Z,96271.41
2023-02-18T21:49:07.107Z,96271.97
2023-02-18T21:51:58.926Z,96267.78
2023-02-18T21:54:27.398Z,96279.47
2023-02-18T21:56:54.945Z,96278.91
2023-02-18T21:59:23.495Z,96276.66
2023-02-18T22:01:50.306Z,96275.94
2023-02-18T22:04:17.079Z,96272.97
2023-02-18T22:06:43.910Z,96271.91
2023-02-18T22:09:12.901Z,96270.22
2023-02-18T22:11:43.418Z,96279.03
2023-02-18T22:14:11.480Z,96280.44
2023-02-18T22:16:38.580Z,96278.88
2023-02-18T22:19:05.478Z,96281.19
2023-02-18T22:21:32.259Z,96276.56
2023-02-18T22:23:58.882Z,96278.09
2023-02-18T22:26:25.636Z,96277.31
2023-02-18T22:28:54.565Z,96269.50
2023-02-18T22:31:22.665Z,96276.56
2023-02-18T22:33:52.130Z,96286.94
2023-02-18T22:36:23.160Z,96285.97
2023-02-18T22:38:50.637Z,96284.69
2023-02-18T22:41:19.402Z,96278.69
2023-02-18T22:43:46.531Z,96274.81
2023-02-18T22:46:15.841Z,96283.56
2023-02-18T22:48:43.306Z,96279.94
2023-02-18T22:51:13.557Z,96292.66
2023-02-18T22:53:40.950Z,96291.59
2023-02-18T22:56:12.336Z,96289.38
2023-02-18T22:58:40.081Z,96291.63
2023-02-18T23:01:07.314Z,96300.59
2023-02-18T23:03:34.569Z,96294.25
2023-02-18T23:06:06.006Z,96306.66
2023-02-18T23:08:33.756Z,96302.94
2023-02-18T23:11:09.545Z,96302.63
2023-02-18T23:13:37.063Z,96306.13
2023-02-18T23:16:07.450Z,96308.22
2023-02-18T23:18:35.552Z,96304.50
2023-02-18T23:21:20.887Z,96307.72
2023-02-18T23:23:50.330Z,96309.25
2023-02-18T23:26:18.440Z,96315.78
2023-02-18T23:28:48.584Z,96307.81
2023-02-18T23:31:24.652Z,96310.06
2023-02-18T23:33:59.282Z,96320.28
2023-02-18T23:36:28.657Z,96326.84
2023-02-18T23:38:58.186Z,96310.69
2023-02-18T23:41:26.629Z,96320.09
2023-02-18T23:43:54.060Z,96319.84
2023-02-18T23:46:23.714Z,96311.34
2023-02-18T23:48:50.783Z,96315.28
2023-02-18T23:51:20.028Z,96317.31
2023-02-18T23:53:47.006Z,96323.63
2023-02-18T23:56:13.636Z,96319.09
2023-02-18T23:58:42.927Z,96329.97
